Aviation Digital Data Service (ADDS)

Output produced by METARs form (0655 UTC 07 December 2022)
found at http://www.aviationweather.gov/metar/data/
 
Forecast for: LGKR (IOANNIS KAPODIST, GR)
Text: TAF LGKR 070500Z 0706/0806 13010KT 9999 SCT015 BKN025
Forecast period: 0600 UTC 07 December 2022 to 0600 UTC 08 December 2022
Forecast type: FROM: standard forecast or significant change
Winds: from the SE (130 degrees) at 12 MPH (10 knots; 5.1 m/s)
Visibility: 6 or more miles (10+ km)
Ceiling: 2500 feet AGL
Clouds: scattered clouds at 1500 feet AGL
broken clouds at 2500 feet AGL
Weather: no significant weather forecast for this period
Text: PROB40
Forecast period: 0600 UTC 07 December 2022 to 0600 UTC 08 December 2022
Forecast type: TEMPORARY: The following changes expected for less than half the time period
Visibility: 3 miles (5 km)
Ceiling: 2500 feet AGL
Clouds: scattered clouds at 1200 feet AGL
few clouds at 1800 feet AGL
broken clouds at 2500 feet AGL
Weather: RA  (moderate rain)
Text: TEMPO 0706/0806 5000 RA SCT012 FEW018TCU BKN025
Forecast period: 1500 to 1800 UTC 07 December 2022
Forecast type: TEMPORARY: The following changes expected for less than half the time period
Visibility: 2.49 miles (4.01 km)
Ceiling: 2000 feet AGL
Clouds: scattered clouds at 800 feet AGL
few clouds at 1800 feet AGL
broken clouds at 2000 feet AGL
Weather: TSRA  (rain associated with thunderstorm(s))